Terminal Aerodrome Forecast
Issued by NWS

Home | Current Version | Previous Version | Text Only | Print | Product List | Glossary Off
Versions: 1 2 3 4 5 6 7 8 9 10 11 12 13 14 15 16 17 18 19

500
FTUS43 KMPX 242330
TAFAXN
TAF
KAXN 242330Z 2500/2524 15013KT 6SM -SHRA VCTS SCT015CB OVC025
      TEMPO 2500/2503 4SM TSRA BR OVC015CB
     FM250600 18010KT P6SM FEW050
     FM251500 25014G22KT P6SM OVC050
     FM251900 29020G30KT P6SM VCSH OVC025=

USA.gov is the U.S. government's official web portal to all federal, state and local government web resources and services.